createdAt,value
2022-12-19T00:02:45.893Z,15.77
2022-12-19T00:05:53.279Z,10.07
2022-12-19T00:08:59.131Z,12.33
2022-12-19T00:12:02.892Z,14.03
2022-12-19T00:15:07.641Z,14.30
2022-12-19T00:18:11.307Z,15.00
2022-12-19T00:21:18.262Z,14.57
2022-12-19T00:24:21.966Z,12.97
2022-12-19T00:27:25.728Z,13.57
2022-12-19T00:30:29.510Z,14.40
2022-12-19T00:33:33.828Z,16.73
2022-12-19T00:36:40.998Z,15.23
2022-12-19T00:39:44.501Z,13.50
2022-12-19T00:42:53.696Z,15.67
2022-12-19T00:45:57.933Z,14.77
2022-12-19T00:49:02.370Z,15.43
2022-12-19T00:52:08.720Z,14.57
2022-12-19T00:55:19.053Z,14.33
2022-12-19T00:58:24.033Z,14.87
2022-12-19T01:01:30.698Z,14.53
2022-12-19T01:04:41.086Z,14.97
2022-12-19T01:07:50.621Z,13.33
2022-12-19T01:10:54.501Z,12.43
2022-12-19T01:13:58.320Z,14.83
2022-12-19T01:17:02.434Z,13.30
2022-12-19T01:20:07.411Z,12.50
2022-12-19T01:23:16.014Z,6.77
2022-12-19T01:26:19.905Z,13.37
2022-12-19T01:29:24.374Z,16.07
2022-12-19T01:32:28.291Z,16.47
2022-12-19T01:35:31.989Z,16.50
2022-12-19T01:38:38.173Z,12.67
2022-12-19T01:41:42.067Z,16.27
2022-12-19T01:45:06.072Z,15.33
2022-12-19T01:48:17.835Z,16.37
2022-12-19T01:51:24.675Z,17.07
2022-12-19T01:54:33.839Z,16.90
2022-12-19T01:57:38.599Z,16.27
2022-12-19T02:00:44.906Z,16.90
2022-12-19T02:03:50.091Z,15.63
2022-12-19T02:06:57.394Z,17.37
2022-12-19T02:10:03.150Z,15.03
2022-12-19T02:13:12.848Z,16.73
2022-12-19T02:16:30.079Z,17.40
2022-12-19T02:20:20.247Z,17.00
2022-12-19T02:23:56.021Z,16.43
2022-12-19T02:27:22.200Z,15.33
2022-12-19T02:30:55.223Z,14.07
2022-12-19T02:34:10.404Z,14.73
2022-12-19T02:37:25.106Z,14.50
2022-12-19T02:40:34.714Z,15.57
2022-12-19T02:43:42.924Z,13.53
2022-12-19T02:46:50.925Z,13.23
2022-12-19T02:49:54.765Z,11.93
2022-12-19T02:52:58.529Z,13.13
2022-12-19T02:56:23.524Z,14.97
2022-12-19T02:59:55.761Z,12.83
2022-12-19T03:03:12.397Z,10.90
2022-12-19T03:06:26.394Z,11.33
2022-12-19T03:09:40.304Z,11.60
2022-12-19T03:12:51.511Z,13.63
2022-12-19T03:15:55.549Z,12.83
2022-12-19T03:19:00.991Z,11.20
2022-12-19T03:22:04.654Z,13.87
2022-12-19T03:25:09.413Z,14.60
2022-12-19T03:28:17.680Z,13.90
2022-12-19T03:31:24.880Z,13.17
2022-12-19T03:34:33.115Z,11.20
2022-12-19T03:37:40.169Z,12.73
2022-12-19T03:40:47.308Z,9.43
2022-12-19T03:43:50.108Z,12.03
2022-12-19T03:47:02.448Z,12.77
2022-12-19T03:50:09.890Z,15.23
2022-12-19T03:53:26.582Z,12.67
2022-12-19T03:56:41.329Z,12.57
2022-12-19T03:59:47.992Z,11.00
2022-12-19T04:02:54.389Z,11.67
2022-12-19T04:06:01.543Z,11.87
2022-12-19T04:09:05.842Z,11.60
2022-12-19T04:12:15.160Z,10.63
2022-12-19T04:15:19.613Z,12.33
2022-12-19T04:18:24.526Z,9.57
2022-12-19T04:21:34.318Z,11.43
2022-12-19T04:24:42.345Z,9.47
2022-12-19T04:27:52.593Z,10.80
2022-12-19T04:30:56.516Z,12.90
2022-12-19T04:34:00.366Z,11.87
2022-12-19T04:37:05.894Z,10.33
2022-12-19T04:40:11.323Z,12.10
2022-12-19T04:43:14.989Z,13.50
2022-12-19T04:46:18.596Z,12.30
2022-12-19T04:49:22.230Z,13.10
2022-12-19T04:52:27.546Z,14.23
2022-12-19T04:55:31.282Z,11.60
2022-12-19T04:58:35.213Z,8.60
2022-12-19T05:01:38.857Z,13.60
2022-12-19T05:04:42.613Z,13.90
2022-12-19T05:07:48.340Z,14.87
2022-12-19T05:10:51.989Z,13.47
2022-12-19T05:13:55.590Z,13.93
2022-12-19T05:17:01.533Z,14.23
2022-12-19T05:20:07.214Z,19.83
2022-12-19T05:23:17.304Z,14.37
2022-12-19T05:26:21.549Z,16.83
2022-12-19T05:29:25.512Z,13.57
2022-12-19T05:32:32.552Z,14.03
2022-12-19T05:35:36.363Z,15.63
2022-12-19T05:38:41.659Z,14.80
2022-12-19T05:41:48.830Z,15.20
2022-12-19T05:44:53.041Z,14.40
2022-12-19T05:48:01.079Z,14.27
2022-12-19T05:51:05.367Z,15.47
2022-12-19T05:54:10.436Z,14.97
2022-12-19T05:57:14.185Z,18.10
2022-12-19T06:00:18.598Z,15.07
2022-12-19T06:03:22.732Z,15.07
2022-12-19T06:06:28.407Z,15.40
2022-12-19T06:09:34.343Z,15.37
2022-12-19T06:12:38.408Z,18.53
2022-12-19T06:15:42.290Z,23.47
2022-12-19T06:18:47.700Z,23.83
2022-12-19T06:21:52.009Z,17.10
2022-12-19T06:24:57.305Z,22.13
2022-12-19T06:28:01.105Z,18.87
2022-12-19T06:31:07.283Z,17.10
2022-12-19T06:34:22.095Z,14.20
2022-12-19T06:37:39.339Z,16.90
2022-12-19T06:41:03.870Z,17.90
2022-12-19T06:44:09.546Z,14.63
2022-12-19T06:47:14.443Z,17.60
2022-12-19T06:50:18.454Z,18.00
2022-12-19T06:53:22.605Z,19.57
2022-12-19T06:56:28.498Z,13.27
2022-12-19T06:59:32.342Z,15.80
2022-12-19T07:02:36.396Z,15.20
2022-12-19T07:05:41.416Z,14.87
2022-12-19T07:08:45.373Z,14.80
2022-12-19T07:11:50.594Z,12.27
2022-12-19T07:14:54.528Z,14.57
2022-12-19T07:17:59.198Z,16.07
2022-12-19T07:21:03.694Z,14.07
2022-12-19T07:24:11.652Z,14.30
2022-12-19T07:27:16.901Z,16.07
2022-12-19T07:30:20.909Z,16.17
2022-12-19T07:33:24.593Z,12.87
2022-12-19T07:36:28.445Z,16.93
2022-12-19T07:39:32.334Z,16.87
2022-12-19T07:42:37.600Z,16.10
2022-12-19T07:45:41.766Z,17.47
2022-12-19T07:48:45.746Z,13.07
2022-12-19T07:51:50.018Z,12.57
2022-12-19T07:54:53.907Z,14.40
2022-12-19T07:57:59.210Z,8.80
2022-12-19T08:01:03.890Z,13.60
2022-12-19T08:04:07.713Z,13.10
2022-12-19T08:07:13.070Z,14.17
2022-12-19T08:10:16.892Z,12.20
2022-12-19T08:13:22.274Z,13.30
2022-12-19T08:16:29.172Z,16.60
2022-12-19T08:19:33.168Z,14.87
2022-12-19T08:22:37.261Z,15.43
2022-12-19T08:25:41.111Z,13.50
2022-12-19T08:28:48.421Z,14.63
2022-12-19T08:31:52.267Z,13.27
2022-12-19T08:34:56.928Z,15.50
2022-12-19T08:38:00.719Z,14.13
2022-12-19T08:41:05.206Z,13.37
2022-12-19T08:44:12.990Z,12.03
2022-12-19T08:47:18.171Z,12.33
2022-12-19T08:50:22.160Z,12.63
2022-12-19T08:53:26.953Z,12.10
2022-12-19T08:56:31.215Z,11.43
2022-12-19T08:59:36.516Z,13.83
2022-12-19T09:02:41.310Z,13.90
2022-12-19T09:06:03.977Z,13.00
2022-12-19T09:09:09.401Z,12.87
2022-12-19T09:12:14.464Z,12.27
2022-12-19T09:15:19.925Z,12.30
2022-12-19T09:18:24.366Z,12.97
2022-12-19T09:21:30.680Z,11.43
2022-12-19T09:24:34.589Z,11.13
2022-12-19T09:28:01.255Z,11.00
2022-12-19T09:31:05.760Z,12.17
2022-12-19T09:34:09.984Z,10.43
2022-12-19T09:37:16.800Z,12.17
2022-12-19T09:40:21.641Z,11.97
2022-12-19T09:43:41.571Z,12.90
2022-12-19T09:46:52.015Z,10.97
2022-12-19T09:49:55.976Z,7.80
2022-12-19T09:53:04.851Z,11.70
2022-12-19T09:56:16.374Z,11.30
2022-12-19T09:59:37.107Z,11.17
2022-12-19T10:02:51.677Z,5.93
2022-12-19T10:06:56.228Z,10.00
2022-12-19T10:11:52.489Z,9.83
2022-12-19T10:13:14.662Z,9.77
2022-12-19T10:16:33.287Z,11.40
2022-12-19T10:19:47.806Z,10.00
2022-12-19T10:23:03.037Z,10.43
2022-12-19T10:26:12.464Z,10.40
2022-12-19T10:30:01.936Z,11.47
2022-12-19T10:33:20.727Z,10.83
2022-12-19T10:36:55.907Z,9.67
2022-12-19T10:39:58.218Z,9.20
2022-12-19T10:43:10.483Z,10.43
2022-12-19T10:46:19.669Z,10.40
2022-12-19T10:49:25.005Z,10.43
2022-12-19T10:52:53.682Z,10.67
2022-12-19T10:56:03.149Z,10.90
2022-12-19T10:59:17.935Z,11.40
2022-12-19T11:02:34.477Z,10.13
2022-12-19T11:05:45.123Z,9.43
2022-12-19T11:08:52.945Z,7.93
2022-12-19T11:16:12.313Z,9.60
2022-12-19T11:21:27.046Z,9.00
2022-12-19T11:27:04.339Z,8.13
2022-12-19T11:29:37.682Z,8.37
2022-12-19T11:30:47.827Z,7.80
2022-12-19T11:32:49.179Z,7.47
2022-12-19T11:35:56.785Z,6.97
2022-12-19T11:39:01.307Z,6.50
2022-12-19T11:42:14.007Z,5.97
2022-12-19T11:45:22.306Z,7.67
2022-12-19T11:48:36.413Z,7.20
2022-12-19T11:51:49.906Z,6.80
2022-12-19T11:55:00.864Z,6.57
2022-12-19T11:58:06.137Z,6.67
2022-12-19T12:01:22.087Z,6.43
2022-12-19T12:04:51.641Z,6.00
2022-12-19T12:08:49.414Z,6.57
2022-12-19T12:18:29.839Z,5.50
2022-12-19T12:29:21.164Z,5.33
2022-12-19T12:31:07.208Z,8.40
2022-12-19T12:31:45.376Z,5.73
2022-12-19T12:31:50.447Z,5.07
2022-12-19T12:31:58.823Z,6.23
2022-12-19T12:35:45.381Z,5.03
2022-12-19T12:40:45.921Z,4.63
2022-12-19T12:44:08.039Z,4.70
2022-12-19T12:47:19.346Z,4.23
2022-12-19T12:50:26.732Z,5.37
2022-12-19T12:53:35.837Z,4.93
2022-12-19T12:56:41.202Z,13.53
2022-12-19T12:59:47.766Z,6.23
2022-12-19T13:02:56.777Z,5.77
2022-12-19T13:06:22.692Z,3.63
2022-12-19T13:09:29.544Z,4.87
2022-12-19T13:12:50.938Z,7.40
2022-12-19T13:15:54.894Z,6.37
2022-12-19T13:19:06.245Z,4.03
2022-12-19T13:22:23.349Z,4.70
2022-12-19T13:25:54.847Z,4.67
2022-12-19T13:29:28.048Z,5.00
2022-12-19T13:32:55.197Z,8.20
2022-12-19T13:39:42.319Z,8.47
2022-12-19T13:39:56.172Z,9.13
2022-12-19T13:43:22.254Z,5.70
2022-12-19T13:46:38.412Z,5.90
2022-12-19T13:49:42.668Z,8.87
2022-12-19T13:52:51.089Z,5.23
2022-12-19T13:56:00.528Z,5.50
2022-12-19T13:59:07.407Z,6.27
2022-12-19T14:02:22.783Z,7.87
2022-12-19T14:06:09.660Z,8.70
2022-12-19T14:11:26.683Z,5.67
2022-12-19T14:13:47.550Z,5.37
2022-12-19T14:16:17.206Z,6.97
2022-12-19T14:19:24.964Z,7.73
2022-12-19T14:22:28.725Z,7.07
2022-12-19T14:28:16.743Z,9.67
2022-12-19T14:29:08.404Z,8.20
2022-12-19T14:33:39.246Z,11.40
2022-12-19T14:36:06.966Z,8.07
2022-12-19T14:39:24.703Z,8.40
2022-12-19T14:43:30.234Z,9.60
2022-12-19T14:51:51.709Z,11.30
2022-12-19T14:54:05.763Z,7.23
2022-12-19T14:54:40.049Z,7.73
2022-12-19T14:56:59.322Z,5.97
2022-12-19T15:01:07.304Z,9.20
2022-12-19T15:04:50.973Z,8.10
2022-12-19T15:07:23.439Z,8.70
2022-12-19T15:11:08.479Z,8.00
2022-12-19T15:14:51.285Z,8.40
2022-12-19T15:17:22.963Z,8.80
2022-12-19T15:20:28.241Z,9.03
2022-12-19T15:23:33.157Z,12.00
2022-12-19T15:26:47.575Z,8.93
2022-12-19T15:29:51.808Z,11.43
2022-12-19T15:32:55.814Z,9.37
2022-12-19T15:36:01.623Z,13.83
2022-12-19T15:39:05.697Z,12.20
2022-12-19T15:42:19.188Z,9.80
2022-12-19T15:45:22.964Z,12.27
2022-12-19T15:48:27.811Z,12.83
2022-12-19T15:51:33.155Z,14.33
2022-12-19T15:54:52.284Z,15.20
2022-12-19T15:57:59.381Z,10.40
2022-12-19T16:01:05.405Z,12.67
2022-12-19T16:04:14.793Z,29.70
2022-12-19T16:07:22.021Z,12.57
2022-12-19T16:10:26.965Z,10.33
2022-12-19T16:13:32.556Z,12.83
2022-12-19T16:16:36.406Z,9.60
2022-12-19T16:19:41.465Z,10.37
2022-12-19T16:22:46.916Z,6.93
2022-12-19T16:25:52.562Z,11.27
2022-12-19T16:28:56.687Z,8.17
2022-12-19T16:32:01.982Z,7.60
2022-12-19T16:35:17.464Z,8.23
2022-12-19T16:38:29.154Z,6.20
2022-12-19T16:41:33.208Z,5.57
2022-12-19T16:44:48.527Z,5.27
2022-12-19T16:47:53.239Z,6.00
2022-12-19T16:50:58.699Z,6.97
2022-12-19T16:54:04.073Z,6.73
2022-12-19T16:57:16.269Z,6.17
2022-12-19T17:00:22.028Z,6.23
2022-12-19T17:03:31.407Z,6.60
2022-12-19T17:06:35.347Z,7.17
2022-12-19T17:09:40.620Z,8.47
2022-12-19T17:12:45.957Z,5.73
2022-12-19T17:15:56.426Z,10.20
2022-12-19T17:19:01.169Z,9.73
2022-12-19T17:22:05.658Z,7.67
2022-12-19T17:25:18.225Z,8.73
2022-12-19T17:28:22.227Z,9.37
2022-12-19T17:31:29.677Z,7.33
2022-12-19T17:34:35.298Z,7.77
2022-12-19T17:37:39.228Z,10.53
2022-12-19T17:40:45.904Z,7.33
2022-12-19T17:43:49.686Z,8.23
2022-12-19T17:46:53.882Z,8.57
2022-12-19T17:49:57.923Z,7.40
2022-12-19T17:53:01.710Z,7.80
2022-12-19T17:56:07.445Z,7.73
2022-12-19T17:59:11.192Z,8.20
2022-12-19T18:02:25.936Z,8.47
2022-12-19T18:05:33.502Z,7.63
2022-12-19T18:08:37.439Z,8.70
2022-12-19T18:11:42.773Z,7.63
2022-12-19T18:14:46.649Z,7.97
2022-12-19T18:17:53.365Z,8.00
2022-12-19T18:20:58.614Z,8.07
2022-12-19T18:24:02.623Z,8.97
2022-12-19T18:27:07.978Z,8.17
2022-12-19T18:30:14.956Z,8.53
2022-12-19T18:33:22.896Z,7.87
2022-12-19T18:36:28.017Z,10.37
2022-12-19T18:39:33.847Z,11.67
2022-12-19T18:42:39.113Z,10.80
2022-12-19T18:45:47.393Z,10.47
2022-12-19T18:48:51.334Z,8.37
2022-12-19T18:51:55.756Z,8.97
2022-12-19T18:54:59.595Z,8.30
2022-12-19T18:58:04.836Z,7.97
2022-12-19T19:01:14.358Z,9.20
2022-12-19T19:04:18.909Z,7.97
2022-12-19T19:07:22.780Z,7.47
2022-12-19T19:10:28.861Z,8.43
2022-12-19T19:13:43.643Z,9.90
2022-12-19T19:16:47.569Z,12.73
2022-12-19T19:19:51.522Z,12.93
2022-12-19T19:22:55.663Z,18.93
2022-12-19T19:25:59.575Z,19.30
2022-12-19T19:29:05.022Z,18.30
2022-12-19T19:32:09.136Z,9.37
2022-12-19T19:35:17.184Z,10.80
2022-12-19T19:38:23.046Z,11.70
2022-12-19T19:41:30.136Z,10.07
2022-12-19T19:44:35.605Z,15.13
2022-12-19T19:47:39.512Z,14.20
2022-12-19T19:50:43.435Z,13.50
2022-12-19T19:53:47.426Z,14.70
2022-12-19T19:56:51.207Z,12.27
2022-12-19T19:59:56.484Z,11.73
2022-12-19T20:03:06.298Z,13.60
2022-12-19T20:06:12.874Z,12.27
2022-12-19T20:09:17.008Z,12.77
2022-12-19T20:12:20.959Z,17.33
2022-12-19T20:15:26.367Z,14.47
2022-12-19T20:18:30.577Z,16.30
2022-12-19T20:21:34.420Z,16.63
2022-12-19T20:24:38.126Z,20.37
2022-12-19T20:27:42.092Z,18.30
2022-12-19T20:30:47.579Z,18.37
2022-12-19T20:33:53.333Z,18.57
2022-12-19T20:36:57.333Z,17.20
2022-12-19T20:40:01.151Z,16.27
2022-12-19T20:43:04.954Z,14.37
2022-12-19T20:46:13.115Z,14.77
2022-12-19T20:49:17.192Z,14.53
2022-12-19T20:52:21.044Z,14.70
2022-12-19T20:55:24.927Z,16.57
2022-12-19T20:58:29.437Z,15.77
2022-12-19T21:01:35.211Z,13.83
2022-12-19T21:04:39.220Z,15.43
2022-12-19T21:07:43.317Z,14.87
2022-12-19T21:10:47.197Z,14.77
2022-12-19T21:13:51.263Z,15.03
2022-12-19T21:16:56.584Z,14.40
2022-12-19T21:20:00.364Z,13.43
2022-12-19T21:23:04.285Z,15.00
2022-12-19T21:26:08.303Z,13.27
2022-12-19T21:29:12.242Z,12.53
2022-12-19T21:32:19.160Z,12.53
2022-12-19T21:35:23.614Z,11.20
2022-12-19T21:38:27.403Z,11.03
2022-12-19T21:41:31.622Z,10.23
2022-12-19T21:44:35.317Z,10.27
2022-12-19T21:47:42.288Z,9.67
2022-12-19T21:50:46.263Z,9.30
2022-12-19T21:53:54.483Z,10.30
2022-12-19T21:56:58.403Z,11.33
2022-12-19T22:00:02.227Z,14.10
2022-12-19T22:03:15.254Z,21.00
2022-12-19T22:06:27.284Z,28.93
2022-12-19T22:09:32.093Z,15.33
2022-12-19T22:12:35.799Z,19.37
2022-12-19T22:15:40.355Z,18.83
2022-12-19T22:18:46.213Z,25.00
2022-12-19T22:21:50.086Z,21.90
2022-12-19T22:24:53.895Z,19.30
2022-12-19T22:27:58.148Z,15.47
2022-12-19T22:31:02.225Z,14.87
2022-12-19T22:34:09.676Z,22.10
2022-12-19T22:37:13.529Z,11.27
2022-12-19T22:40:17.675Z,7.30
2022-12-19T22:43:21.781Z,12.17
2022-12-19T22:46:27.774Z,7.13
2022-12-19T22:49:33.064Z,13.00
2022-12-19T22:52:37.143Z,11.63
2022-12-19T22:55:41.043Z,13.83
2022-12-19T22:58:47.479Z,16.50
2022-12-19T23:01:51.559Z,14.80
2022-12-19T23:04:57.004Z,13.00
2022-12-19T23:08:01.086Z,12.67
2022-12-19T23:11:05.681Z,8.27
2022-12-19T23:14:13.497Z,11.97
2022-12-19T23:17:17.698Z,14.90
2022-12-19T23:20:22.957Z,10.83
2022-12-19T23:23:26.859Z,11.80
2022-12-19T23:26:32.398Z,11.27
2022-12-19T23:29:37.452Z,12.10
2022-12-19T23:32:47.054Z,9.93
2022-12-19T23:35:55.763Z,14.23
2022-12-19T23:38:59.642Z,12.43
2022-12-19T23:42:03.612Z,14.03
2022-12-19T23:45:08.687Z,11.13
2022-12-19T23:48:12.493Z,10.97
2022-12-19T23:51:20.357Z,12.97
2022-12-19T23:54:24.167Z,10.50
2022-12-19T23:57:28.016Z,11.90
